sensor_id;sensor_type;location;lat;lon;timestamp;P1;durP1;ratioP1;P2;durP2;ratioP2
830;SDS011;397;50.564;7.272;2023-04-01T00:01:50;2.00;;;0.53;;
830;SDS011;397;50.564;7.272;2023-04-01T00:04:17;4.50;;;1.37;;
830;SDS011;397;50.564;7.272;2023-04-01T00:06:46;2.57;;;0.70;;
830;SDS011;397;50.564;7.272;2023-04-01T00:09:13;3.37;;;0.80;;
830;SDS011;397;50.564;7.272;2023-04-01T00:11:41;3.10;;;0.83;;
830;SDS011;397;50.564;7.272;2023-04-01T00:14:11;2.70;;;0.70;;
830;SDS011;397;50.564;7.272;2023-04-01T00:16:39;3.00;;;0.80;;
830;SDS011;397;50.564;7.272;2023-04-01T00:19:06;2.57;;;0.60;;
830;SDS011;397;50.564;7.272;2023-04-01T00:21:34;3.47;;;0.80;;
830;SDS011;397;50.564;7.272;2023-04-01T00:24:02;3.40;;;1.27;;
830;SDS011;397;50.564;7.272;2023-04-01T00:26:30;2.60;;;0.83;;
830;SDS011;397;50.564;7.272;2023-04-01T00:28:58;2.37;;;0.73;;
830;SDS011;397;50.564;7.272;2023-04-01T00:31:26;2.20;;;0.73;;
830;SDS011;397;50.564;7.272;2023-04-01T00:33:54;2.13;;;0.80;;
830;SDS011;397;50.564;7.272;2023-04-01T00:36:22;2.07;;;0.70;;
830;SDS011;397;50.564;7.272;2023-04-01T00:38:49;2.67;;;0.80;;
830;SDS011;397;50.564;7.272;2023-04-01T00:41:18;2.80;;;0.67;;
830;SDS011;397;50.564;7.272;2023-04-01T00:43:47;4.20;;;0.70;;
830;SDS011;397;50.564;7.272;2023-04-01T00:46:17;3.10;;;0.87;;
830;SDS011;397;50.564;7.272;2023-04-01T00:48:46;2.77;;;0.70;;
830;SDS011;397;50.564;7.272;2023-04-01T00:51:16;2.40;;;0.77;;
830;SDS011;397;50.564;7.272;2023-04-01T00:53:47;2.33;;;1.20;;
830;SDS011;397;50.564;7.272;2023-04-01T00:56:17;3.43;;;0.77;;
830;SDS011;397;50.564;7.272;2023-04-01T00:58:58;2.20;;;0.80;;
830;SDS011;397;50.564;7.272;2023-04-01T01:01:27;4.30;;;0.80;;
830;SDS011;397;50.564;7.272;2023-04-01T01:03:56;2.27;;;0.57;;
830;SDS011;397;50.564;7.272;2023-04-01T01:09:30;2.30;;;0.70;;
830;SDS011;397;50.564;7.272;2023-04-01T01:12:10;2.57;;;0.80;;
830;SDS011;397;50.564;7.272;2023-04-01T01:17:32;1.50;;;0.50;;
830;SDS011;397;50.564;7.272;2023-04-01T01:29:13;1.87;;;0.50;;
830;SDS011;397;50.564;7.272;2023-04-01T01:32:08;2.13;;;0.90;;
830;SDS011;397;50.564;7.272;2023-04-01T01:37:14;3.50;;;1.40;;
830;SDS011;397;50.564;7.272;2023-04-01T01:39:44;1.50;;;0.50;;
830;SDS011;397;50.564;7.272;2023-04-01T01:42:15;3.47;;;0.73;;
830;SDS011;397;50.564;7.272;2023-04-01T01:44:45;3.10;;;0.70;;
830;SDS011;397;50.564;7.272;2023-04-01T01:47:15;3.10;;;1.03;;
830;SDS011;397;50.564;7.272;2023-04-01T01:49:45;1.77;;;0.60;;
830;SDS011;397;50.564;7.272;2023-04-01T01:52:13;3.10;;;0.80;;
830;SDS011;397;50.564;7.272;2023-04-01T01:54:48;1.60;;;0.50;;
830;SDS011;397;50.564;7.272;2023-04-01T01:57:16;2.07;;;0.73;;
830;SDS011;397;50.564;7.272;2023-04-01T01:59:46;3.07;;;0.70;;
830;SDS011;397;50.564;7.272;2023-04-01T02:02:15;2.63;;;0.97;;
830;SDS011;397;50.564;7.272;2023-04-01T02:04:44;3.00;;;0.60;;
830;SDS011;397;50.564;7.272;2023-04-01T02:07:24;2.10;;;0.70;;
830;SDS011;397;50.564;7.272;2023-04-01T02:09:49;2.83;;;0.60;;
830;SDS011;397;50.564;7.272;2023-04-01T02:12:17;2.03;;;0.77;;
830;SDS011;397;50.564;7.272;2023-04-01T02:14:50;1.97;;;0.60;;
830;SDS011;397;50.564;7.272;2023-04-01T02:17:26;2.70;;;0.97;;
830;SDS011;397;50.564;7.272;2023-04-01T02:19:53;1.90;;;0.57;;
830;SDS011;397;50.564;7.272;2023-04-01T02:22:31;2.03;;;0.73;;
830;SDS011;397;50.564;7.272;2023-04-01T02:25:00;2.93;;;0.90;;
830;SDS011;397;50.564;7.272;2023-04-01T02:27:30;3.20;;;0.90;;
830;SDS011;397;50.564;7.272;2023-04-01T02:29:58;2.53;;;0.70;;
830;SDS011;397;50.564;7.272;2023-04-01T02:32:26;2.17;;;0.80;;
830;SDS011;397;50.564;7.272;2023-04-01T02:34:55;1.70;;;0.50;;
830;SDS011;397;50.564;7.272;2023-04-01T02:37:24;4.70;;;1.03;;
830;SDS011;397;50.564;7.272;2023-04-01T02:39:52;2.07;;;0.60;;
830;SDS011;397;50.564;7.272;2023-04-01T02:42:20;2.63;;;0.57;;
830;SDS011;397;50.564;7.272;2023-04-01T02:44:47;3.33;;;0.80;;
830;SDS011;397;50.564;7.272;2023-04-01T02:47:15;1.87;;;0.50;;
830;SDS011;397;50.564;7.272;2023-04-01T02:49:42;2.73;;;0.93;;
830;SDS011;397;50.564;7.272;2023-04-01T02:52:10;2.20;;;0.60;;
830;SDS011;397;50.564;7.272;2023-04-01T02:54:37;2.80;;;0.93;;
830;SDS011;397;50.564;7.272;2023-04-01T02:57:06;1.70;;;0.60;;
830;SDS011;397;50.564;7.272;2023-04-01T02:59:33;3.00;;;0.80;;
830;SDS011;397;50.564;7.272;2023-04-01T03:02:01;1.83;;;0.60;;
830;SDS011;397;50.564;7.272;2023-04-01T03:04:28;1.50;;;0.40;;
830;SDS011;397;50.564;7.272;2023-04-01T03:06:56;1.60;;;0.50;;
830;SDS011;397;50.564;7.272;2023-04-01T03:09:24;2.50;;;0.63;;
830;SDS011;397;50.564;7.272;2023-04-01T03:11:51;1.70;;;0.53;;
830;SDS011;397;50.564;7.272;2023-04-01T03:14:18;2.13;;;0.60;;
830;SDS011;397;50.564;7.272;2023-04-01T03:16:46;2.33;;;0.60;;
830;SDS011;397;50.564;7.272;2023-04-01T03:19:14;2.00;;;0.70;;
830;SDS011;397;50.564;7.272;2023-04-01T03:21:41;2.10;;;0.60;;
830;SDS011;397;50.564;7.272;2023-04-01T03:24:09;1.60;;;0.50;;
830;SDS011;397;50.564;7.272;2023-04-01T03:26:36;1.70;;;0.40;;
830;SDS011;397;50.564;7.272;2023-04-01T03:29:04;1.80;;;0.50;;
830;SDS011;397;50.564;7.272;2023-04-01T03:31:31;1.50;;;0.40;;
830;SDS011;397;50.564;7.272;2023-04-01T03:34:00;2.33;;;0.90;;
830;SDS011;397;50.564;7.272;2023-04-01T03:36:27;2.20;;;1.00;;
830;SDS011;397;50.564;7.272;2023-04-01T03:38:55;1.70;;;0.60;;
830;SDS011;397;50.564;7.272;2023-04-01T03:41:22;1.83;;;0.47;;
830;SDS011;397;50.564;7.272;2023-04-01T03:43:51;1.77;;;0.50;;
830;SDS011;397;50.564;7.272;2023-04-01T03:46:20;1.50;;;0.40;;
830;SDS011;397;50.564;7.272;2023-04-01T03:48:47;1.53;;;0.43;;
830;SDS011;397;50.564;7.272;2023-04-01T03:51:15;1.90;;;0.50;;
830;SDS011;397;50.564;7.272;2023-04-01T03:53:42;2.67;;;0.63;;
830;SDS011;397;50.564;7.272;2023-04-01T03:56:11;1.60;;;0.47;;
830;SDS011;397;50.564;7.272;2023-04-01T03:58:38;2.70;;;0.50;;
830;SDS011;397;50.564;7.272;2023-04-01T04:01:16;2.10;;;0.57;;
830;SDS011;397;50.564;7.272;2023-04-01T04:03:46;2.10;;;0.50;;
830;SDS011;397;50.564;7.272;2023-04-01T04:06:15;1.73;;;0.40;;
830;SDS011;397;50.564;7.272;2023-04-01T04:08:44;2.60;;;0.80;;
830;SDS011;397;50.564;7.272;2023-04-01T04:11:12;1.80;;;0.60;;
830;SDS011;397;50.564;7.272;2023-04-01T04:13:40;3.60;;;0.70;;
830;SDS011;397;50.564;7.272;2023-04-01T04:16:08;1.90;;;0.40;;
830;SDS011;397;50.564;7.272;2023-04-01T04:18:36;1.70;;;0.50;;
830;SDS011;397;50.564;7.272;2023-04-01T04:21:04;1.60;;;0.50;;
830;SDS011;397;50.564;7.272;2023-04-01T04:23:31;1.40;;;0.30;;
830;SDS011;397;50.564;7.272;2023-04-01T04:26:01;2.27;;;0.90;;
830;SDS011;397;50.564;7.272;2023-04-01T04:28:30;1.90;;;0.80;;
830;SDS011;397;50.564;7.272;2023-04-01T04:30:58;1.73;;;0.40;;
830;SDS011;397;50.564;7.272;2023-04-01T04:33:26;1.50;;;0.43;;
830;SDS011;397;50.564;7.272;2023-04-01T04:35:55;3.10;;;1.47;;
830;SDS011;397;50.564;7.272;2023-04-01T04:38:24;2.10;;;0.90;;
830;SDS011;397;50.564;7.272;2023-04-01T04:40:52;2.17;;;0.93;;
830;SDS011;397;50.564;7.272;2023-04-01T04:43:20;1.83;;;0.77;;
830;SDS011;397;50.564;7.272;2023-04-01T04:45:48;2.60;;;1.30;;
830;SDS011;397;50.564;7.272;2023-04-01T04:48:15;2.73;;;1.20;;
830;SDS011;397;50.564;7.272;2023-04-01T04:50:50;1.70;;;0.60;;
830;SDS011;397;50.564;7.272;2023-04-01T04:53:16;4.80;;;1.33;;
830;SDS011;397;50.564;7.272;2023-04-01T04:55:46;1.60;;;0.50;;
830;SDS011;397;50.564;7.272;2023-04-01T04:58:15;2.20;;;0.70;;
830;SDS011;397;50.564;7.272;2023-04-01T05:00:43;1.50;;;0.50;;
830;SDS011;397;50.564;7.272;2023-04-01T05:03:11;1.60;;;0.43;;
830;SDS011;397;50.564;7.272;2023-04-01T05:05:38;1.50;;;0.40;;
830;SDS011;397;50.564;7.272;2023-04-01T05:08:06;1.60;;;0.50;;
830;SDS011;397;50.564;7.272;2023-04-01T05:10:34;2.47;;;0.40;;
830;SDS011;397;50.564;7.272;2023-04-01T05:13:01;2.33;;;0.67;;
830;SDS011;397;50.564;7.272;2023-04-01T05:15:29;1.70;;;0.60;;
830;SDS011;397;50.564;7.272;2023-04-01T05:17:56;1.60;;;0.50;;
830;SDS011;397;50.564;7.272;2023-04-01T05:20:24;1.80;;;0.60;;
830;SDS011;397;50.564;7.272;2023-04-01T05:22:55;1.70;;;0.70;;
830;SDS011;397;50.564;7.272;2023-04-01T05:25:23;1.97;;;0.70;;
830;SDS011;397;50.564;7.272;2023-04-01T05:27:51;2.33;;;0.70;;
830;SDS011;397;50.564;7.272;2023-04-01T05:30:18;1.57;;;0.50;;
830;SDS011;397;50.564;7.272;2023-04-01T05:32:46;2.10;;;0.90;;
830;SDS011;397;50.564;7.272;2023-04-01T05:35:14;2.33;;;0.47;;
830;SDS011;397;50.564;7.272;2023-04-01T05:37:41;1.60;;;0.40;;
830;SDS011;397;50.564;7.272;2023-04-01T05:40:09;1.70;;;0.50;;
830;SDS011;397;50.564;7.272;2023-04-01T05:42:37;1.50;;;0.50;;
830;SDS011;397;50.564;7.272;2023-04-01T05:45:04;1.60;;;0.60;;
830;SDS011;397;50.564;7.272;2023-04-01T05:47:32;1.97;;;0.90;;
830;SDS011;397;50.564;7.272;2023-04-01T05:50:00;1.77;;;0.63;;
830;SDS011;397;50.564;7.272;2023-04-01T05:52:27;1.90;;;0.70;;
830;SDS011;397;50.564;7.272;2023-04-01T05:54:55;1.60;;;0.47;;
830;SDS011;397;50.564;7.272;2023-04-01T05:57:23;1.60;;;0.60;;
830;SDS011;397;50.564;7.272;2023-04-01T05:59:50;1.80;;;0.40;;
830;SDS011;397;50.564;7.272;2023-04-01T06:02:18;2.03;;;0.60;;
830;SDS011;397;50.564;7.272;2023-04-01T06:04:45;1.60;;;0.40;;
830;SDS011;397;50.564;7.272;2023-04-01T06:07:13;1.80;;;0.50;;
830;SDS011;397;50.564;7.272;2023-04-01T06:09:43;1.70;;;0.63;;
830;SDS011;397;50.564;7.272;2023-04-01T06:20:44;1.70;;;0.50;;
830;SDS011;397;50.564;7.272;2023-04-01T06:23:31;1.60;;;0.70;;
830;SDS011;397;50.564;7.272;2023-04-01T06:28:50;1.80;;;0.57;;
830;SDS011;397;50.564;7.272;2023-04-01T06:33:58;1.40;;;0.40;;
830;SDS011;397;50.564;7.272;2023-04-01T06:36:29;2.73;;;0.50;;
830;SDS011;397;50.564;7.272;2023-04-01T06:47:23;1.60;;;0.60;;
830;SDS011;397;50.564;7.272;2023-04-01T06:52:50;1.50;;;0.43;;
830;SDS011;397;50.564;7.272;2023-04-01T07:01:14;1.50;;;0.50;;
830;SDS011;397;50.564;7.272;2023-04-01T07:06:23;1.73;;;0.60;;
830;SDS011;397;50.564;7.272;2023-04-01T07:08:58;1.60;;;0.50;;
830;SDS011;397;50.564;7.272;2023-04-01T07:11:32;1.50;;;0.40;;
830;SDS011;397;50.564;7.272;2023-04-01T07:14:06;1.60;;;0.40;;
830;SDS011;397;50.564;7.272;2023-04-01T07:16:58;1.80;;;0.63;;
830;SDS011;397;50.564;7.272;2023-04-01T07:19:39;1.50;;;0.40;;
830;SDS011;397;50.564;7.272;2023-04-01T07:22:25;1.80;;;0.40;;
830;SDS011;397;50.564;7.272;2023-04-01T07:25:00;1.60;;;0.60;;
830;SDS011;397;50.564;7.272;2023-04-01T07:27:28;2.60;;;1.40;;
830;SDS011;397;50.564;7.272;2023-04-01T07:29:56;1.80;;;0.90;;
830;SDS011;397;50.564;7.272;2023-04-01T07:32:39;1.50;;;0.43;;
830;SDS011;397;50.564;7.272;2023-04-01T07:37:52;1.80;;;0.60;;
830;SDS011;397;50.564;7.272;2023-04-01T07:40:27;1.60;;;0.50;;
830;SDS011;397;50.564;7.272;2023-04-01T07:48:43;1.60;;;0.70;;
830;SDS011;397;50.564;7.272;2023-04-01T07:51:21;1.50;;;0.40;;
830;SDS011;397;50.564;7.272;2023-04-01T07:54:21;1.83;;;0.77;;
830;SDS011;397;50.564;7.272;2023-04-01T07:57:00;1.80;;;0.60;;
830;SDS011;397;50.564;7.272;2023-04-01T07:59:58;2.20;;;0.70;;
830;SDS011;397;50.564;7.272;2023-04-01T08:02:32;2.17;;;0.60;;
830;SDS011;397;50.564;7.272;2023-04-01T08:05:04;1.80;;;0.70;;
830;SDS011;397;50.564;7.272;2023-04-01T08:07:42;1.90;;;0.80;;
830;SDS011;397;50.564;7.272;2023-04-01T08:10:21;1.70;;;0.70;;
830;SDS011;397;50.564;7.272;2023-04-01T08:12:48;2.40;;;1.20;;
830;SDS011;397;50.564;7.272;2023-04-01T08:15:19;1.80;;;0.90;;
830;SDS011;397;50.564;7.272;2023-04-01T08:20:44;1.70;;;0.60;;
830;SDS011;397;50.564;7.272;2023-04-01T08:26:06;1.50;;;0.50;;
830;SDS011;397;50.564;7.272;2023-04-01T08:31:06;2.13;;;0.70;;
830;SDS011;397;50.564;7.272;2023-04-01T08:33:42;1.90;;;0.70;;
830;SDS011;397;50.564;7.272;2023-04-01T08:38:57;1.93;;;0.67;;
830;SDS011;397;50.564;7.272;2023-04-01T08:52:22;1.67;;;0.67;;
830;SDS011;397;50.564;7.272;2023-04-01T09:01:03;1.90;;;0.60;;
830;SDS011;397;50.564;7.272;2023-04-01T09:05:45;1.70;;;0.70;;
830;SDS011;397;50.564;7.272;2023-04-01T09:11:31;1.60;;;0.50;;
830;SDS011;397;50.564;7.272;2023-04-01T09:14:23;1.57;;;0.60;;
830;SDS011;397;50.564;7.272;2023-04-01T09:19:55;1.50;;;0.50;;
830;SDS011;397;50.564;7.272;2023-04-01T09:25:22;1.73;;;0.67;;
830;SDS011;397;50.564;7.272;2023-04-01T09:30:40;1.70;;;0.50;;
830;SDS011;397;50.564;7.272;2023-04-01T09:33:16;1.60;;;0.63;;
830;SDS011;397;50.564;7.272;2023-04-01T09:38:56;1.60;;;0.50;;
830;SDS011;397;50.564;7.272;2023-04-01T09:41:31;2.10;;;0.70;;
830;SDS011;397;50.564;7.272;2023-04-01T09:44:00;1.57;;;0.60;;
830;SDS011;397;50.564;7.272;2023-04-01T09:49:37;1.60;;;0.60;;
830;SDS011;397;50.564;7.272;2023-04-01T10:18:08;1.80;;;0.60;;
830;SDS011;397;50.564;7.272;2023-04-01T10:24:16;1.70;;;0.70;;
830;SDS011;397;50.564;7.272;2023-04-01T10:26:25;2.03;;;0.80;;
830;SDS011;397;50.564;7.272;2023-04-01T10:29:16;2.13;;;0.73;;
830;SDS011;397;50.564;7.272;2023-04-01T10:43:16;2.20;;;0.70;;
830;SDS011;397;50.564;7.272;2023-04-01T10:51:25;1.60;;;0.50;;
830;SDS011;397;50.564;7.272;2023-04-01T10:56:58;2.23;;;0.63;;
830;SDS011;397;50.564;7.272;2023-04-01T10:59:43;1.80;;;0.80;;
830;SDS011;397;50.564;7.272;2023-04-01T11:19:27;1.80;;;0.80;;
830;SDS011;397;50.564;7.272;2023-04-01T11:21:55;2.20;;;1.10;;
830;SDS011;397;50.564;7.272;2023-04-01T11:32:50;2.00;;;1.00;;
830;SDS011;397;50.564;7.272;2023-04-01T11:50:15;1.80;;;0.70;;
830;SDS011;397;50.564;7.272;2023-04-01T11:57:48;1.60;;;0.60;;
830;SDS011;397;50.564;7.272;2023-04-01T12:03:45;1.50;;;0.40;;
830;SDS011;397;50.564;7.272;2023-04-01T12:09:04;2.10;;;1.00;;
830;SDS011;397;50.564;7.272;2023-04-01T12:11:46;1.70;;;0.53;;
830;SDS011;397;50.564;7.272;2023-04-01T12:14:19;1.70;;;0.60;;
830;SDS011;397;50.564;7.272;2023-04-01T12:16:52;2.30;;;0.60;;
830;SDS011;397;50.564;7.272;2023-04-01T12:19:26;1.70;;;0.60;;
830;SDS011;397;50.564;7.272;2023-04-01T12:22:12;1.60;;;0.50;;
830;SDS011;397;50.564;7.272;2023-04-01T12:27:35;1.60;;;0.50;;
830;SDS011;397;50.564;7.272;2023-04-01T12:30:13;1.90;;;1.00;;
830;SDS011;397;50.564;7.272;2023-04-01T12:38:33;1.90;;;0.80;;
830;SDS011;397;50.564;7.272;2023-04-01T12:52:12;1.53;;;0.50;;
830;SDS011;397;50.564;7.272;2023-04-01T12:57:30;2.10;;;1.03;;
830;SDS011;397;50.564;7.272;2023-04-01T13:03:19;1.53;;;0.47;;
830;SDS011;397;50.564;7.272;2023-04-01T13:14:29;1.80;;;0.80;;
830;SDS011;397;50.564;7.272;2023-04-01T13:17:29;1.63;;;0.60;;
830;SDS011;397;50.564;7.272;2023-04-01T13:20:06;2.33;;;0.90;;
830;SDS011;397;50.564;7.272;2023-04-01T13:22:51;1.77;;;0.70;;
830;SDS011;397;50.564;7.272;2023-04-01T13:28:17;1.80;;;0.97;;
830;SDS011;397;50.564;7.272;2023-04-01T13:31:00;2.40;;;0.70;;
830;SDS011;397;50.564;7.272;2023-04-01T13:49:36;1.70;;;0.77;;
830;SDS011;397;50.564;7.272;2023-04-01T13:52:21;2.20;;;1.30;;
830;SDS011;397;50.564;7.272;2023-04-01T13:55:03;2.03;;;0.90;;
830;SDS011;397;50.564;7.272;2023-04-01T13:57:47;3.20;;;1.10;;
830;SDS011;397;50.564;7.272;2023-04-01T14:08:48;2.07;;;1.13;;
830;SDS011;397;50.564;7.272;2023-04-01T14:20:02;2.33;;;1.13;;
830;SDS011;397;50.564;7.272;2023-04-01T14:25:21;2.53;;;1.40;;
830;SDS011;397;50.564;7.272;2023-04-01T14:36:45;1.70;;;0.70;;
830;SDS011;397;50.564;7.272;2023-04-01T14:44:52;1.60;;;0.60;;
830;SDS011;397;50.564;7.272;2023-04-01T14:47:33;2.80;;;1.20;;
830;SDS011;397;50.564;7.272;2023-04-01T14:50:03;3.43;;;1.77;;
830;SDS011;397;50.564;7.272;2023-04-01T14:52:38;3.60;;;2.50;;
830;SDS011;397;50.564;7.272;2023-04-01T14:55:20;4.30;;;2.80;;
830;SDS011;397;50.564;7.272;2023-04-01T14:58:00;2.83;;;2.03;;
830;SDS011;397;50.564;7.272;2023-04-01T15:00:47;1.90;;;0.90;;
830;SDS011;397;50.564;7.272;2023-04-01T15:03:26;2.10;;;0.90;;
830;SDS011;397;50.564;7.272;2023-04-01T15:09:10;1.60;;;0.60;;
830;SDS011;397;50.564;7.272;2023-04-01T15:12:03;1.87;;;0.67;;
830;SDS011;397;50.564;7.272;2023-04-01T15:14:39;1.70;;;0.60;;
830;SDS011;397;50.564;7.272;2023-04-01T15:17:37;1.80;;;0.80;;
830;SDS011;397;50.564;7.272;2023-04-01T15:20:16;1.90;;;0.90;;
830;SDS011;397;50.564;7.272;2023-04-01T15:25:25;3.40;;;1.60;;
830;SDS011;397;50.564;7.272;2023-04-01T15:27:58;3.00;;;1.33;;
830;SDS011;397;50.564;7.272;2023-04-01T15:33:29;1.90;;;1.00;;
830;SDS011;397;50.564;7.272;2023-04-01T15:36:20;2.10;;;1.07;;
830;SDS011;397;50.564;7.272;2023-04-01T15:39:00;2.20;;;1.30;;
830;SDS011;397;50.564;7.272;2023-04-01T15:42:04;2.40;;;1.40;;
830;SDS011;397;50.564;7.272;2023-04-01T15:50:06;3.23;;;1.00;;
830;SDS011;397;50.564;7.272;2023-04-01T15:52:47;2.00;;;0.80;;
830;SDS011;397;50.564;7.272;2023-04-01T16:01:15;1.83;;;0.87;;
830;SDS011;397;50.564;7.272;2023-04-01T16:03:52;2.47;;;1.10;;
830;SDS011;397;50.564;7.272;2023-04-01T16:06:27;2.00;;;0.90;;
830;SDS011;397;50.564;7.272;2023-04-01T16:09:06;1.80;;;0.97;;
830;SDS011;397;50.564;7.272;2023-04-01T16:11:53;1.70;;;0.87;;
830;SDS011;397;50.564;7.272;2023-04-01T16:17:32;2.37;;;1.10;;
830;SDS011;397;50.564;7.272;2023-04-01T16:22:59;2.17;;;1.00;;
830;SDS011;397;50.564;7.272;2023-04-01T16:25:32;1.90;;;0.80;;
830;SDS011;397;50.564;7.272;2023-04-01T16:31:48;2.43;;;1.40;;
830;SDS011;397;50.564;7.272;2023-04-01T16:33:47;2.20;;;1.20;;
830;SDS011;397;50.564;7.272;2023-04-01T16:36:27;2.00;;;1.20;;
830;SDS011;397;50.564;7.272;2023-04-01T16:42:16;1.80;;;0.80;;
830;SDS011;397;50.564;7.272;2023-04-01T16:44:52;4.00;;;1.20;;
830;SDS011;397;50.564;7.272;2023-04-01T16:47:27;1.80;;;0.80;;
830;SDS011;397;50.564;7.272;2023-04-01T16:50:11;2.30;;;1.20;;
830;SDS011;397;50.564;7.272;2023-04-01T16:55:45;4.23;;;1.03;;
830;SDS011;397;50.564;7.272;2023-04-01T16:58:24;2.10;;;0.93;;
830;SDS011;397;50.564;7.272;2023-04-01T17:00:55;2.00;;;1.00;;
830;SDS011;397;50.564;7.272;2023-04-01T17:03:33;2.77;;;0.93;;
830;SDS011;397;50.564;7.272;2023-04-01T17:06:03;1.70;;;0.80;;
830;SDS011;397;50.564;7.272;2023-04-01T17:08:38;2.50;;;0.70;;
830;SDS011;397;50.564;7.272;2023-04-01T17:11:10;2.63;;;1.20;;
830;SDS011;397;50.564;7.272;2023-04-01T17:16:24;1.70;;;1.10;;
830;SDS011;397;50.564;7.272;2023-04-01T17:22:06;1.87;;;1.00;;
830;SDS011;397;50.564;7.272;2023-04-01T17:24:50;2.17;;;1.50;;
830;SDS011;397;50.564;7.272;2023-04-01T17:27:19;1.70;;;0.97;;
830;SDS011;397;50.564;7.272;2023-04-01T17:30:05;3.10;;;1.10;;
830;SDS011;397;50.564;7.272;2023-04-01T17:35:32;2.13;;;1.13;;
830;SDS011;397;50.564;7.272;2023-04-01T17:40:55;2.40;;;1.13;;
830;SDS011;397;50.564;7.272;2023-04-01T17:49:11;2.03;;;1.13;;
830;SDS011;397;50.564;7.272;2023-04-01T17:51:40;1.90;;;0.90;;
830;SDS011;397;50.564;7.272;2023-04-01T17:56:45;2.90;;;1.13;;
830;SDS011;397;50.564;7.272;2023-04-01T18:04:40;2.23;;;1.20;;
830;SDS011;397;50.564;7.272;2023-04-01T18:21:33;2.27;;;1.13;;
830;SDS011;397;50.564;7.272;2023-04-01T18:27:03;2.73;;;2.33;;
830;SDS011;397;50.564;7.272;2023-04-01T18:29:58;2.23;;;1.47;;
830;SDS011;397;50.564;7.272;2023-04-01T18:32:34;1.93;;;0.93;;
830;SDS011;397;50.564;7.272;2023-04-01T18:37:55;2.07;;;1.20;;
830;SDS011;397;50.564;7.272;2023-04-01T18:40:26;2.20;;;1.43;;
830;SDS011;397;50.564;7.272;2023-04-01T18:45:35;3.13;;;1.20;;
830;SDS011;397;50.564;7.272;2023-04-01T18:48:38;2.40;;;1.30;;
830;SDS011;397;50.564;7.272;2023-04-01T18:51:21;1.90;;;1.30;;
830;SDS011;397;50.564;7.272;2023-04-01T18:53:57;2.67;;;1.27;;
830;SDS011;397;50.564;7.272;2023-04-01T18:56:30;2.20;;;1.13;;
830;SDS011;397;50.564;7.272;2023-04-01T18:59:21;2.67;;;1.30;;
830;SDS011;397;50.564;7.272;2023-04-01T19:05:32;2.10;;;1.30;;
830;SDS011;397;50.564;7.272;2023-04-01T19:10:26;2.17;;;1.50;;
830;SDS011;397;50.564;7.272;2023-04-01T19:13:14;1.90;;;1.00;;
830;SDS011;397;50.564;7.272;2023-04-01T19:15:49;1.73;;;1.10;;
830;SDS011;397;50.564;7.272;2023-04-01T19:18:45;1.83;;;1.20;;
830;SDS011;397;50.564;7.272;2023-04-01T19:21:21;1.90;;;1.27;;
830;SDS011;397;50.564;7.272;2023-04-01T19:23:56;2.20;;;1.33;;
830;SDS011;397;50.564;7.272;2023-04-01T19:26:33;2.20;;;1.30;;
830;SDS011;397;50.564;7.272;2023-04-01T19:29:20;2.53;;;1.53;;
830;SDS011;397;50.564;7.272;2023-04-01T19:37:22;2.00;;;1.20;;
830;SDS011;397;50.564;7.272;2023-04-01T19:40:19;2.50;;;1.67;;
830;SDS011;397;50.564;7.272;2023-04-01T19:43:08;2.10;;;1.50;;
830;SDS011;397;50.564;7.272;2023-04-01T19:45:47;2.10;;;1.40;;
830;SDS011;397;50.564;7.272;2023-04-01T19:48:27;2.70;;;1.63;;
830;SDS011;397;50.564;7.272;2023-04-01T19:51:03;2.40;;;1.47;;
830;SDS011;397;50.564;7.272;2023-04-01T19:56:22;2.00;;;1.40;;
830;SDS011;397;50.564;7.272;2023-04-01T20:01:45;4.37;;;1.87;;
830;SDS011;397;50.564;7.272;2023-04-01T20:04:17;2.47;;;1.60;;
830;SDS011;397;50.564;7.272;2023-04-01T20:12:12;2.53;;;1.37;;
830;SDS011;397;50.564;7.272;2023-04-01T20:14:50;2.20;;;1.60;;
830;SDS011;397;50.564;7.272;2023-04-01T20:28:12;2.40;;;1.67;;
830;SDS011;397;50.564;7.272;2023-04-01T20:39:15;7.20;;;5.90;;
830;SDS011;397;50.564;7.272;2023-04-01T20:42:34;3.70;;;3.17;;
830;SDS011;397;50.564;7.272;2023-04-01T20:47:02;2.40;;;1.80;;
830;SDS011;397;50.564;7.272;2023-04-01T20:49:58;3.20;;;2.20;;
830;SDS011;397;50.564;7.272;2023-04-01T20:52:29;3.10;;;2.60;;
830;SDS011;397;50.564;7.272;2023-04-01T20:58:06;3.73;;;2.60;;
830;SDS011;397;50.564;7.272;2023-04-01T21:03:23;4.00;;;2.30;;
830;SDS011;397;50.564;7.272;2023-04-01T21:09:02;3.93;;;2.07;;
830;SDS011;397;50.564;7.272;2023-04-01T21:17:08;3.70;;;2.63;;
830;SDS011;397;50.564;7.272;2023-04-01T21:19:42;4.23;;;2.93;;
830;SDS011;397;50.564;7.272;2023-04-01T21:24:59;2.90;;;2.50;;
830;SDS011;397;50.564;7.272;2023-04-01T21:30:32;3.10;;;2.13;;
830;SDS011;397;50.564;7.272;2023-04-01T21:41:35;3.67;;;2.07;;
830;SDS011;397;50.564;7.272;2023-04-01T21:46:54;2.90;;;2.20;;
830;SDS011;397;50.564;7.272;2023-04-01T21:49:29;3.37;;;3.07;;
830;SDS011;397;50.564;7.272;2023-04-01T21:52:01;2.53;;;1.93;;
830;SDS011;397;50.564;7.272;2023-04-01T22:00:27;5.20;;;4.10;;
830;SDS011;397;50.564;7.272;2023-04-01T22:03:03;5.70;;;4.00;;
830;SDS011;397;50.564;7.272;2023-04-01T22:05:45;4.13;;;2.83;;
830;SDS011;397;50.564;7.272;2023-04-01T22:11:14;3.67;;;2.37;;
830;SDS011;397;50.564;7.272;2023-04-01T22:13:54;3.90;;;1.93;;
830;SDS011;397;50.564;7.272;2023-04-01T22:16:32;2.57;;;1.77;;
830;SDS011;397;50.564;7.272;2023-04-01T22:25:08;2.10;;;1.63;;
830;SDS011;397;50.564;7.272;2023-04-01T22:27:42;3.07;;;1.57;;
830;SDS011;397;50.564;7.272;2023-04-01T22:32:50;2.93;;;1.50;;
830;SDS011;397;50.564;7.272;2023-04-01T22:43:47;3.50;;;2.20;;
830;SDS011;397;50.564;7.272;2023-04-01T22:52:30;2.20;;;1.60;;
830;SDS011;397;50.564;7.272;2023-04-01T22:54:27;3.87;;;1.97;;
830;SDS011;397;50.564;7.272;2023-04-01T22:56:57;2.33;;;1.60;;
830;SDS011;397;50.564;7.272;2023-04-01T22:59:37;2.90;;;2.27;;
830;SDS011;397;50.564;7.272;2023-04-01T23:02:16;2.83;;;2.20;;
830;SDS011;397;50.564;7.272;2023-04-01T23:04:55;2.37;;;1.77;;
830;SDS011;397;50.564;7.272;2023-04-01T23:10:26;3.30;;;1.90;;
830;SDS011;397;50.564;7.272;2023-04-01T23:12:59;2.50;;;1.50;;
830;SDS011;397;50.564;7.272;2023-04-01T23:15:29;2.97;;;2.50;;
830;SDS011;397;50.564;7.272;2023-04-01T23:18:12;4.70;;;2.17;;
830;SDS011;397;50.564;7.272;2023-04-01T23:29:34;4.20;;;1.40;;
830;SDS011;397;50.564;7.272;2023-04-01T23:32:23;2.40;;;1.50;;
830;SDS011;397;50.564;7.272;2023-04-01T23:34:52;2.10;;;1.30;;
830;SDS011;397;50.564;7.272;2023-04-01T23:37:23;2.73;;;1.47;;
830;SDS011;397;50.564;7.272;2023-04-01T23:39:55;2.43;;;1.63;;
830;SDS011;397;50.564;7.272;2023-04-01T23:45:01;2.73;;;1.60;;
830;SDS011;397;50.564;7.272;2023-04-01T23:47:31;3.23;;;2.23;;
830;SDS011;397;50.564;7.272;2023-04-01T23:50:01;2.63;;;2.37;;
830;SDS011;397;50.564;7.272;2023-04-01T23:52:40;3.53;;;2.67;;
830;SDS011;397;50.564;7.272;2023-04-01T23:57:41;2.60;;;1.30;;
